sensor_id;sensor_type;location;lat;lon;timestamp;P1;durP1;ratioP1;P2;durP2;ratioP2
51332;SDS011;37417;48.118;11.734;2023-04-15T00:00:32;5.43;;;2.45;;
51332;SDS011;37417;48.118;11.734;2023-04-15T00:02:58;7.93;;;2.53;;
51332;SDS011;37417;48.118;11.734;2023-04-15T00:05:24;5.22;;;2.75;;
51332;SDS011;37417;48.118;11.734;2023-04-15T00:07:49;6.47;;;2.67;;
51332;SDS011;37417;48.118;11.734;2023-04-15T00:10:15;3.42;;;1.98;;
51332;SDS011;37417;48.118;11.734;2023-04-15T00:12:40;6.60;;;2.40;;
51332;SDS011;37417;48.118;11.734;2023-04-15T00:15:07;7.57;;;3.28;;
51332;SDS011;37417;48.118;11.734;2023-04-15T00:17:33;3.97;;;2.00;;
51332;SDS011;37417;48.118;11.734;2023-04-15T00:19:58;5.88;;;2.67;;
51332;SDS011;37417;48.118;11.734;2023-04-15T00:22:24;4.40;;;2.38;;
51332;SDS011;37417;48.118;11.734;2023-04-15T00:24:51;5.38;;;2.08;;
51332;SDS011;37417;48.118;11.734;2023-04-15T00:27:17;6.88;;;2.58;;
51332;SDS011;37417;48.118;11.734;2023-04-15T00:29:43;7.40;;;2.67;;
51332;SDS011;37417;48.118;11.734;2023-04-15T00:32:09;4.95;;;3.17;;
51332;SDS011;37417;48.118;11.734;2023-04-15T00:34:34;4.47;;;2.28;;
51332;SDS011;37417;48.118;11.734;2023-04-15T00:37:00;4.28;;;3.45;;
51332;SDS011;37417;48.118;11.734;2023-04-15T00:39:26;5.25;;;2.80;;
51332;SDS011;37417;48.118;11.734;2023-04-15T00:41:52;4.25;;;2.45;;
51332;SDS011;37417;48.118;11.734;2023-04-15T00:44:18;9.23;;;2.97;;
51332;SDS011;37417;48.118;11.734;2023-04-15T00:46:43;4.55;;;2.35;;
51332;SDS011;37417;48.118;11.734;2023-04-15T00:49:10;3.50;;;2.35;;
51332;SDS011;37417;48.118;11.734;2023-04-15T00:51:37;5.05;;;2.85;;
51332;SDS011;37417;48.118;11.734;2023-04-15T00:54:02;3.72;;;2.85;;
51332;SDS011;37417;48.118;11.734;2023-04-15T00:56:28;5.30;;;3.15;;
51332;SDS011;37417;48.118;11.734;2023-04-15T00:58:54;3.65;;;2.50;;
51332;SDS011;37417;48.118;11.734;2023-04-15T01:01:21;4.40;;;2.55;;
51332;SDS011;37417;48.118;11.734;2023-04-15T01:03:48;5.30;;;2.80;;
51332;SDS011;37417;48.118;11.734;2023-04-15T01:06:14;2.90;;;2.13;;
51332;SDS011;37417;48.118;11.734;2023-04-15T01:08:40;4.00;;;2.58;;
51332;SDS011;37417;48.118;11.734;2023-04-15T01:11:06;9.85;;;2.65;;
51332;SDS011;37417;48.118;11.734;2023-04-15T01:13:32;2.35;;;2.13;;
51332;SDS011;37417;48.118;11.734;2023-04-15T01:15:58;7.22;;;3.88;;
51332;SDS011;37417;48.118;11.734;2023-04-15T01:18:23;7.18;;;3.50;;
51332;SDS011;37417;48.118;11.734;2023-04-15T01:20:49;7.97;;;3.30;;
51332;SDS011;37417;48.118;11.734;2023-04-15T01:23:14;6.65;;;3.13;;
51332;SDS011;37417;48.118;11.734;2023-04-15T01:25:41;8.00;;;3.70;;
51332;SDS011;37417;48.118;11.734;2023-04-15T01:28:08;7.88;;;3.13;;
51332;SDS011;37417;48.118;11.734;2023-04-15T01:30:34;4.80;;;3.20;;
51332;SDS011;37417;48.118;11.734;2023-04-15T01:32:59;7.40;;;3.75;;
51332;SDS011;37417;48.118;11.734;2023-04-15T01:35:25;5.20;;;3.00;;
51332;SDS011;37417;48.118;11.734;2023-04-15T01:37:51;5.38;;;2.88;;
51332;SDS011;37417;48.118;11.734;2023-04-15T01:40:18;5.82;;;3.38;;
51332;SDS011;37417;48.118;11.734;2023-04-15T01:42:43;5.07;;;3.40;;
51332;SDS011;37417;48.118;11.734;2023-04-15T01:45:09;6.75;;;3.05;;
51332;SDS011;37417;48.118;11.734;2023-04-15T01:47:34;5.60;;;3.42;;
51332;SDS011;37417;48.118;11.734;2023-04-15T01:50:00;5.32;;;3.47;;
51332;SDS011;37417;48.118;11.734;2023-04-15T01:52:25;5.57;;;3.00;;
51332;SDS011;37417;48.118;11.734;2023-04-15T01:54:50;4.13;;;3.22;;
51332;SDS011;37417;48.118;11.734;2023-04-15T01:57:16;6.28;;;3.42;;
51332;SDS011;37417;48.118;11.734;2023-04-15T01:59:41;3.17;;;2.88;;
51332;SDS011;37417;48.118;11.734;2023-04-15T02:02:06;7.40;;;2.80;;
51332;SDS011;37417;48.118;11.734;2023-04-15T02:04:32;5.55;;;2.80;;
51332;SDS011;37417;48.118;11.734;2023-04-15T02:06:58;6.00;;;3.55;;
51332;SDS011;37417;48.118;11.734;2023-04-15T02:09:23;2.45;;;2.25;;
51332;SDS011;37417;48.118;11.734;2023-04-15T02:11:49;7.57;;;2.58;;
51332;SDS011;37417;48.118;11.734;2023-04-15T02:14:16;3.22;;;2.92;;
51332;SDS011;37417;48.118;11.734;2023-04-15T02:16:42;4.72;;;3.47;;
51332;SDS011;37417;48.118;11.734;2023-04-15T02:19:07;6.50;;;3.28;;
51332;SDS011;37417;48.118;11.734;2023-04-15T02:21:33;6.40;;;3.15;;
51332;SDS011;37417;48.118;11.734;2023-04-15T02:24:00;6.63;;;2.97;;
51332;SDS011;37417;48.118;11.734;2023-04-15T02:26:26;5.35;;;3.65;;
51332;SDS011;37417;48.118;11.734;2023-04-15T02:28:52;10.43;;;3.95;;
51332;SDS011;37417;48.118;11.734;2023-04-15T02:31:17;8.27;;;3.65;;
51332;SDS011;37417;48.118;11.734;2023-04-15T02:33:43;6.40;;;3.70;;
51332;SDS011;37417;48.118;11.734;2023-04-15T02:36:08;5.25;;;3.17;;
51332;SDS011;37417;48.118;11.734;2023-04-15T02:38:35;6.53;;;2.90;;
51332;SDS011;37417;48.118;11.734;2023-04-15T02:41:02;4.65;;;2.70;;
51332;SDS011;37417;48.118;11.734;2023-04-15T02:43:27;7.10;;;4.57;;
51332;SDS011;37417;48.118;11.734;2023-04-15T02:45:52;3.70;;;3.15;;
51332;SDS011;37417;48.118;11.734;2023-04-15T02:48:18;6.38;;;3.30;;
51332;SDS011;37417;48.118;11.734;2023-04-15T02:50:44;5.35;;;3.60;;
51332;SDS011;37417;48.118;11.734;2023-04-15T02:53:10;8.88;;;3.72;;
51332;SDS011;37417;48.118;11.734;2023-04-15T02:55:37;6.57;;;3.42;;
51332;SDS011;37417;48.118;11.734;2023-04-15T02:58:02;11.15;;;4.43;;
51332;SDS011;37417;48.118;11.734;2023-04-15T03:00:28;5.30;;;3.85;;
51332;SDS011;37417;48.118;11.734;2023-04-15T03:02:58;4.22;;;3.00;;
51332;SDS011;37417;48.118;11.734;2023-04-15T03:05:26;4.07;;;3.22;;
51332;SDS011;37417;48.118;11.734;2023-04-15T03:07:51;13.23;;;4.18;;
51332;SDS011;37417;48.118;11.734;2023-04-15T03:10:16;5.78;;;3.55;;
51332;SDS011;37417;48.118;11.734;2023-04-15T03:12:42;6.13;;;3.92;;
51332;SDS011;37417;48.118;11.734;2023-04-15T03:15:08;6.07;;;3.58;;
51332;SDS011;37417;48.118;11.734;2023-04-15T03:17:34;5.80;;;3.40;;
51332;SDS011;37417;48.118;11.734;2023-04-15T03:20:03;5.93;;;3.75;;
51332;SDS011;37417;48.118;11.734;2023-04-15T03:22:30;8.02;;;3.42;;
51332;SDS011;37417;48.118;11.734;2023-04-15T03:24:55;4.97;;;3.10;;
51332;SDS011;37417;48.118;11.734;2023-04-15T03:27:21;6.78;;;3.33;;
51332;SDS011;37417;48.118;11.734;2023-04-15T03:29:46;3.88;;;3.30;;
51332;SDS011;37417;48.118;11.734;2023-04-15T03:32:12;5.57;;;3.67;;
51332;SDS011;37417;48.118;11.734;2023-04-15T03:34:39;3.92;;;2.85;;
51332;SDS011;37417;48.118;11.734;2023-04-15T03:37:04;6.05;;;3.13;;
51332;SDS011;37417;48.118;11.734;2023-04-15T03:39:29;5.45;;;3.58;;
51332;SDS011;37417;48.118;11.734;2023-04-15T03:41:55;14.57;;;3.17;;
51332;SDS011;37417;48.118;11.734;2023-04-15T03:44:21;8.07;;;3.05;;
51332;SDS011;37417;48.118;11.734;2023-04-15T03:46:47;10.32;;;3.08;;
51332;SDS011;37417;48.118;11.734;2023-04-15T03:49:12;5.95;;;3.25;;
51332;SDS011;37417;48.118;11.734;2023-04-15T03:51:38;4.95;;;3.88;;
51332;SDS011;37417;48.118;11.734;2023-04-15T03:54:03;6.00;;;2.88;;
51332;SDS011;37417;48.118;11.734;2023-04-15T03:56:28;9.27;;;3.83;;
51332;SDS011;37417;48.118;11.734;2023-04-15T03:58:54;7.03;;;3.75;;
51332;SDS011;37417;48.118;11.734;2023-04-15T04:01:19;5.60;;;3.40;;
51332;SDS011;37417;48.118;11.734;2023-04-15T04:03:45;7.38;;;3.53;;
51332;SDS011;37417;48.118;11.734;2023-04-15T04:06:10;4.88;;;3.05;;
51332;SDS011;37417;48.118;11.734;2023-04-15T04:08:36;4.95;;;3.25;;
51332;SDS011;37417;48.118;11.734;2023-04-15T04:11:02;7.15;;;3.25;;
51332;SDS011;37417;48.118;11.734;2023-04-15T04:13:27;4.28;;;2.97;;
51332;SDS011;37417;48.118;11.734;2023-04-15T04:15:53;3.72;;;3.28;;
51332;SDS011;37417;48.118;11.734;2023-04-15T04:18:18;6.50;;;3.20;;
51332;SDS011;37417;48.118;11.734;2023-04-15T04:20:43;3.25;;;2.97;;
51332;SDS011;37417;48.118;11.734;2023-04-15T04:23:08;5.35;;;3.03;;
51332;SDS011;37417;48.118;11.734;2023-04-15T04:25:34;5.03;;;2.85;;
51332;SDS011;37417;48.118;11.734;2023-04-15T04:27:59;7.68;;;2.72;;
51332;SDS011;37417;48.118;11.734;2023-04-15T04:30:25;5.00;;;3.30;;
51332;SDS011;37417;48.118;11.734;2023-04-15T04:32:50;4.13;;;2.70;;
51332;SDS011;37417;48.118;11.734;2023-04-15T04:35:15;7.80;;;3.25;;
51332;SDS011;37417;48.118;11.734;2023-04-15T04:37:41;4.05;;;3.05;;
51332;SDS011;37417;48.118;11.734;2023-04-15T04:40:07;4.65;;;2.70;;
51332;SDS011;37417;48.118;11.734;2023-04-15T04:42:33;8.40;;;2.78;;
51332;SDS011;37417;48.118;11.734;2023-04-15T04:44:59;5.07;;;2.92;;
51332;SDS011;37417;48.118;11.734;2023-04-15T04:47:24;6.63;;;2.75;;
51332;SDS011;37417;48.118;11.734;2023-04-15T04:49:49;4.28;;;2.67;;
51332;SDS011;37417;48.118;11.734;2023-04-15T04:52:15;4.82;;;2.95;;
51332;SDS011;37417;48.118;11.734;2023-04-15T04:54:40;8.38;;;2.97;;
51332;SDS011;37417;48.118;11.734;2023-04-15T04:57:05;6.72;;;2.30;;
51332;SDS011;37417;48.118;11.734;2023-04-15T04:59:32;6.95;;;2.30;;
51332;SDS011;37417;48.118;11.734;2023-04-15T05:01:57;3.17;;;2.15;;
51332;SDS011;37417;48.118;11.734;2023-04-15T05:04:23;3.05;;;2.15;;
51332;SDS011;37417;48.118;11.734;2023-04-15T05:06:48;3.58;;;2.15;;
51332;SDS011;37417;48.118;11.734;2023-04-15T05:09:13;3.80;;;2.15;;
51332;SDS011;37417;48.118;11.734;2023-04-15T05:11:39;6.43;;;2.60;;
51332;SDS011;37417;48.118;11.734;2023-04-15T05:14:04;4.57;;;2.30;;
51332;SDS011;37417;48.118;11.734;2023-04-15T05:16:29;9.82;;;2.72;;
51332;SDS011;37417;48.118;11.734;2023-04-15T05:18:54;3.92;;;2.10;;
51332;SDS011;37417;48.118;11.734;2023-04-15T05:21:20;9.02;;;2.33;;
51332;SDS011;37417;48.118;11.734;2023-04-15T05:23:46;4.95;;;3.08;;
51332;SDS011;37417;48.118;11.734;2023-04-15T05:26:11;5.50;;;2.25;;
51332;SDS011;37417;48.118;11.734;2023-04-15T05:28:36;4.53;;;2.00;;
51332;SDS011;37417;48.118;11.734;2023-04-15T05:31:02;1.73;;;1.63;;
51332;SDS011;37417;48.118;11.734;2023-04-15T05:33:27;3.17;;;2.08;;
51332;SDS011;37417;48.118;11.734;2023-04-15T05:35:53;2.55;;;2.13;;
51332;SDS011;37417;48.118;11.734;2023-04-15T05:38:18;4.63;;;2.08;;
51332;SDS011;37417;48.118;11.734;2023-04-15T05:40:43;5.40;;;2.03;;
51332;SDS011;37417;48.118;11.734;2023-04-15T05:43:08;3.20;;;1.67;;
51332;SDS011;37417;48.118;11.734;2023-04-15T05:45:34;2.67;;;2.28;;
51332;SDS011;37417;48.118;11.734;2023-04-15T05:48:00;5.43;;;2.00;;
51332;SDS011;37417;48.118;11.734;2023-04-15T05:50:25;5.38;;;1.88;;
51332;SDS011;37417;48.118;11.734;2023-04-15T05:52:51;4.28;;;2.38;;
51332;SDS011;37417;48.118;11.734;2023-04-15T05:55:16;2.35;;;1.17;;
51332;SDS011;37417;48.118;11.734;2023-04-15T05:57:41;3.95;;;1.55;;
51332;SDS011;37417;48.118;11.734;2023-04-15T06:00:07;5.25;;;2.47;;
51332;SDS011;37417;48.118;11.734;2023-04-15T06:02:33;4.03;;;1.35;;
51332;SDS011;37417;48.118;11.734;2023-04-15T06:04:58;1.60;;;1.50;;
51332;SDS011;37417;48.118;11.734;2023-04-15T06:07:24;9.07;;;2.08;;
51332;SDS011;37417;48.118;11.734;2023-04-15T06:09:50;5.60;;;1.48;;
51332;SDS011;37417;48.118;11.734;2023-04-15T06:12:15;2.97;;;1.45;;
51332;SDS011;37417;48.118;11.734;2023-04-15T06:14:41;2.53;;;1.00;;
51332;SDS011;37417;48.118;11.734;2023-04-15T06:17:06;1.02;;;0.82;;
51332;SDS011;37417;48.118;11.734;2023-04-15T06:19:32;2.67;;;1.42;;
51332;SDS011;37417;48.118;11.734;2023-04-15T06:21:58;5.85;;;1.63;;
51332;SDS011;37417;48.118;11.734;2023-04-15T06:24:24;7.28;;;1.90;;
51332;SDS011;37417;48.118;11.734;2023-04-15T06:26:49;1.98;;;0.85;;
51332;SDS011;37417;48.118;11.734;2023-04-15T06:29:15;1.75;;;1.30;;
51332;SDS011;37417;48.118;11.734;2023-04-15T06:31:40;4.20;;;1.10;;
51332;SDS011;37417;48.118;11.734;2023-04-15T06:34:05;2.30;;;1.55;;
51332;SDS011;37417;48.118;11.734;2023-04-15T06:36:31;3.40;;;1.48;;
51332;SDS011;37417;48.118;11.734;2023-04-15T06:38:56;4.18;;;1.50;;
51332;SDS011;37417;48.118;11.734;2023-04-15T06:41:22;3.17;;;1.67;;
51332;SDS011;37417;48.118;11.734;2023-04-15T06:43:47;3.65;;;1.50;;
51332;SDS011;37417;48.118;11.734;2023-04-15T06:46:12;3.05;;;1.88;;
51332;SDS011;37417;48.118;11.734;2023-04-15T06:48:38;2.30;;;1.17;;
51332;SDS011;37417;48.118;11.734;2023-04-15T06:51:03;4.85;;;1.60;;
51332;SDS011;37417;48.118;11.734;2023-04-15T06:53:29;8.48;;;2.10;;
51332;SDS011;37417;48.118;11.734;2023-04-15T06:55:54;3.20;;;1.35;;
51332;SDS011;37417;48.118;11.734;2023-04-15T06:58:20;3.92;;;1.88;;
51332;SDS011;37417;48.118;11.734;2023-04-15T07:00:45;2.33;;;1.45;;
51332;SDS011;37417;48.118;11.734;2023-04-15T07:03:11;7.65;;;1.17;;
51332;SDS011;37417;48.118;11.734;2023-04-15T07:05:37;3.47;;;1.50;;
51332;SDS011;37417;48.118;11.734;2023-04-15T07:08:03;10.43;;;2.00;;
51332;SDS011;37417;48.118;11.734;2023-04-15T07:10:29;3.67;;;1.75;;
51332;SDS011;37417;48.118;11.734;2023-04-15T07:12:55;4.80;;;1.50;;
51332;SDS011;37417;48.118;11.734;2023-04-15T07:15:20;2.92;;;1.52;;
51332;SDS011;37417;48.118;11.734;2023-04-15T07:17:46;2.13;;;1.08;;
51332;SDS011;37417;48.118;11.734;2023-04-15T07:20:11;2.88;;;1.42;;
51332;SDS011;37417;48.118;11.734;2023-04-15T07:22:37;2.17;;;1.02;;
51332;SDS011;37417;48.118;11.734;2023-04-15T07:25:03;1.67;;;1.02;;
51332;SDS011;37417;48.118;11.734;2023-04-15T07:27:29;3.78;;;1.40;;
51332;SDS011;37417;48.118;11.734;2023-04-15T07:29:55;6.78;;;1.65;;
51332;SDS011;37417;48.118;11.734;2023-04-15T07:32:20;3.38;;;0.90;;
51332;SDS011;37417;48.118;11.734;2023-04-15T07:34:45;0.80;;;0.77;;
51332;SDS011;37417;48.118;11.734;2023-04-15T07:37:11;2.05;;;1.13;;
51332;SDS011;37417;48.118;11.734;2023-04-15T07:39:36;5.30;;;1.15;;
51332;SDS011;37417;48.118;11.734;2023-04-15T07:42:02;1.98;;;1.30;;
51332;SDS011;37417;48.118;11.734;2023-04-15T07:44:28;2.70;;;1.35;;
51332;SDS011;37417;48.118;11.734;2023-04-15T07:46:53;5.75;;;1.27;;
51332;SDS011;37417;48.118;11.734;2023-04-15T07:49:19;2.72;;;1.27;;
51332;SDS011;37417;48.118;11.734;2023-04-15T07:51:45;2.03;;;1.40;;
51332;SDS011;37417;48.118;11.734;2023-04-15T07:54:11;5.50;;;1.98;;
51332;SDS011;37417;48.118;11.734;2023-04-15T07:56:36;3.58;;;1.25;;
51332;SDS011;37417;48.118;11.734;2023-04-15T07:59:01;2.78;;;1.17;;
51332;SDS011;37417;48.118;11.734;2023-04-15T08:01:28;2.28;;;0.80;;
51332;SDS011;37417;48.118;11.734;2023-04-15T08:03:54;3.60;;;1.15;;
51332;SDS011;37417;48.118;11.734;2023-04-15T08:06:20;3.53;;;1.40;;
51332;SDS011;37417;48.118;11.734;2023-04-15T08:08:45;4.53;;;1.80;;
51332;SDS011;37417;48.118;11.734;2023-04-15T08:11:11;1.58;;;1.02;;
51332;SDS011;37417;48.118;11.734;2023-04-15T08:13:36;3.30;;;1.27;;
51332;SDS011;37417;48.118;11.734;2023-04-15T08:18:43;3.05;;;1.20;;
51332;SDS011;37417;48.118;11.734;2023-04-15T08:21:09;5.18;;;1.42;;
51332;SDS011;37417;48.118;11.734;2023-04-15T08:23:34;1.98;;;1.13;;
51332;SDS011;37417;48.118;11.734;2023-04-15T08:26:00;2.80;;;1.50;;
51332;SDS011;37417;48.118;11.734;2023-04-15T08:28:26;2.75;;;1.40;;
51332;SDS011;37417;48.118;11.734;2023-04-15T08:30:51;3.15;;;1.30;;
51332;SDS011;37417;48.118;11.734;2023-04-15T08:33:17;4.10;;;1.05;;
51332;SDS011;37417;48.118;11.734;2023-04-15T08:35:42;2.60;;;1.15;;
51332;SDS011;37417;48.118;11.734;2023-04-15T08:38:08;3.65;;;1.50;;
51332;SDS011;37417;48.118;11.734;2023-04-15T08:40:40;4.57;;;1.45;;
51332;SDS011;37417;48.118;11.734;2023-04-15T08:46:15;3.63;;;1.30;;
51332;SDS011;37417;48.118;11.734;2023-04-15T08:48:42;5.47;;;2.10;;
51332;SDS011;37417;48.118;11.734;2023-04-15T08:51:10;4.35;;;1.38;;
51332;SDS011;37417;48.118;11.734;2023-04-15T08:53:35;4.47;;;1.60;;
51332;SDS011;37417;48.118;11.734;2023-04-15T08:56:02;3.50;;;1.48;;
51332;SDS011;37417;48.118;11.734;2023-04-15T08:58:31;3.15;;;2.15;;
51332;SDS011;37417;48.118;11.734;2023-04-15T09:00:57;8.27;;;1.83;;
51332;SDS011;37417;48.118;11.734;2023-04-15T09:03:23;3.13;;;1.25;;
51332;SDS011;37417;48.118;11.734;2023-04-15T09:05:49;3.83;;;2.20;;
51332;SDS011;37417;48.118;11.734;2023-04-15T09:08:14;5.85;;;1.90;;
51332;SDS011;37417;48.118;11.734;2023-04-15T09:10:40;6.65;;;1.95;;
51332;SDS011;37417;48.118;11.734;2023-04-15T09:13:05;4.45;;;1.70;;
51332;SDS011;37417;48.118;11.734;2023-04-15T09:15:31;4.03;;;1.63;;
51332;SDS011;37417;48.118;11.734;2023-04-15T09:17:57;6.35;;;2.22;;
51332;SDS011;37417;48.118;11.734;2023-04-15T09:20:22;3.28;;;2.10;;
51332;SDS011;37417;48.118;11.734;2023-04-15T09:22:48;3.13;;;1.83;;
51332;SDS011;37417;48.118;11.734;2023-04-15T09:27:52;2.30;;;1.75;;
51332;SDS011;37417;48.118;11.734;2023-04-15T09:30:21;4.47;;;1.70;;
51332;SDS011;37417;48.118;11.734;2023-04-15T09:32:50;2.88;;;1.70;;
51332;SDS011;37417;48.118;11.734;2023-04-15T09:35:23;3.63;;;2.92;;
51332;SDS011;37417;48.118;11.734;2023-04-15T09:37:50;4.32;;;2.28;;
51332;SDS011;37417;48.118;11.734;2023-04-15T09:43:05;6.22;;;2.65;;
51332;SDS011;37417;48.118;11.734;2023-04-15T09:45:32;8.50;;;2.58;;
51332;SDS011;37417;48.118;11.734;2023-04-15T09:47:58;3.42;;;1.95;;
51332;SDS011;37417;48.118;11.734;2023-04-15T09:50:39;9.43;;;2.83;;
51332;SDS011;37417;48.118;11.734;2023-04-15T09:53:08;7.72;;;2.80;;
51332;SDS011;37417;48.118;11.734;2023-04-15T09:55:34;5.35;;;2.38;;
51332;SDS011;37417;48.118;11.734;2023-04-15T09:57:59;3.53;;;2.08;;
51332;SDS011;37417;48.118;11.734;2023-04-15T10:00:25;7.10;;;2.55;;
51332;SDS011;37417;48.118;11.734;2023-04-15T10:02:50;5.15;;;3.17;;
51332;SDS011;37417;48.118;11.734;2023-04-15T10:05:16;3.33;;;2.67;;
51332;SDS011;37417;48.118;11.734;2023-04-15T10:07:42;3.45;;;2.60;;
51332;SDS011;37417;48.118;11.734;2023-04-15T10:10:07;8.18;;;3.55;;
51332;SDS011;37417;48.118;11.734;2023-04-15T10:12:33;4.43;;;2.53;;
51332;SDS011;37417;48.118;11.734;2023-04-15T10:15:05;6.40;;;3.13;;
51332;SDS011;37417;48.118;11.734;2023-04-15T10:17:32;3.22;;;2.92;;
51332;SDS011;37417;48.118;11.734;2023-04-15T10:20:03;4.78;;;2.85;;
51332;SDS011;37417;48.118;11.734;2023-04-15T10:22:29;3.53;;;3.10;;
51332;SDS011;37417;48.118;11.734;2023-04-15T10:24:55;4.95;;;3.33;;
51332;SDS011;37417;48.118;11.734;2023-04-15T10:27:21;3.03;;;2.70;;
51332;SDS011;37417;48.118;11.734;2023-04-15T10:29:50;5.57;;;3.45;;
51332;SDS011;37417;48.118;11.734;2023-04-15T10:32:19;4.45;;;2.80;;
51332;SDS011;37417;48.118;11.734;2023-04-15T10:34:45;5.30;;;2.80;;
51332;SDS011;37417;48.118;11.734;2023-04-15T10:37:18;6.22;;;3.30;;
51332;SDS011;37417;48.118;11.734;2023-04-15T10:39:45;10.38;;;3.90;;
51332;SDS011;37417;48.118;11.734;2023-04-15T10:42:14;7.28;;;3.47;;
51332;SDS011;37417;48.118;11.734;2023-04-15T10:44:42;10.55;;;3.10;;
51332;SDS011;37417;48.118;11.734;2023-04-15T10:47:13;6.13;;;2.50;;
51332;SDS011;37417;48.118;11.734;2023-04-15T10:49:45;6.25;;;2.83;;
51332;SDS011;37417;48.118;11.734;2023-04-15T10:52:15;4.45;;;3.00;;
51332;SDS011;37417;48.118;11.734;2023-04-15T10:54:42;8.45;;;3.45;;
51332;SDS011;37417;48.118;11.734;2023-04-15T10:57:08;4.32;;;2.88;;
51332;SDS011;37417;48.118;11.734;2023-04-15T10:59:58;4.30;;;3.22;;
51332;SDS011;37417;48.118;11.734;2023-04-15T11:03:13;5.90;;;3.03;;
51332;SDS011;37417;48.118;11.734;2023-04-15T11:05:16;6.60;;;3.58;;
51332;SDS011;37417;48.118;11.734;2023-04-15T11:12:50;9.00;;;3.15;;
51332;SDS011;37417;48.118;11.734;2023-04-15T11:15:27;6.03;;;3.92;;
51332;SDS011;37417;48.118;11.734;2023-04-15T11:20:34;4.75;;;3.58;;
51332;SDS011;37417;48.118;11.734;2023-04-15T11:22:59;3.47;;;3.10;;
51332;SDS011;37417;48.118;11.734;2023-04-15T11:25:25;6.05;;;2.78;;
51332;SDS011;37417;48.118;11.734;2023-04-15T11:27:53;7.97;;;3.38;;
51332;SDS011;37417;48.118;11.734;2023-04-15T11:30:19;4.82;;;3.47;;
51332;SDS011;37417;48.118;11.734;2023-04-15T11:32:47;7.32;;;3.10;;
51332;SDS011;37417;48.118;11.734;2023-04-15T11:35:13;5.85;;;3.17;;
51332;SDS011;37417;48.118;11.734;2023-04-15T11:37:38;6.13;;;3.10;;
51332;SDS011;37417;48.118;11.734;2023-04-15T11:40:04;6.07;;;3.78;;
51332;SDS011;37417;48.118;11.734;2023-04-15T11:42:30;3.55;;;2.22;;
51332;SDS011;37417;48.118;11.734;2023-04-15T11:45:05;6.15;;;2.70;;
51332;SDS011;37417;48.118;11.734;2023-04-15T11:47:37;9.65;;;2.75;;
51332;SDS011;37417;48.118;11.734;2023-04-15T11:50:15;5.95;;;3.17;;
51332;SDS011;37417;48.118;11.734;2023-04-15T11:52:54;3.22;;;2.17;;
51332;SDS011;37417;48.118;11.734;2023-04-15T11:55:20;5.10;;;2.72;;
51332;SDS011;37417;48.118;11.734;2023-04-15T11:57:47;3.92;;;2.70;;
51332;SDS011;37417;48.118;11.734;2023-04-15T12:00:14;4.20;;;3.13;;
51332;SDS011;37417;48.118;11.734;2023-04-15T12:02:41;5.85;;;3.13;;
51332;SDS011;37417;48.118;11.734;2023-04-15T12:05:07;5.43;;;3.05;;
51332;SDS011;37417;48.118;11.734;2023-04-15T12:07:56;6.22;;;2.58;;
51332;SDS011;37417;48.118;11.734;2023-04-15T12:10:23;6.78;;;2.83;;
51332;SDS011;37417;48.118;11.734;2023-04-15T12:12:50;6.28;;;3.03;;
51332;SDS011;37417;48.118;11.734;2023-04-15T12:15:20;5.90;;;3.17;;
51332;SDS011;37417;48.118;11.734;2023-04-15T12:17:47;4.13;;;2.70;;
51332;SDS011;37417;48.118;11.734;2023-04-15T12:20:12;5.45;;;2.75;;
51332;SDS011;37417;48.118;11.734;2023-04-15T12:22:38;4.60;;;3.15;;
51332;SDS011;37417;48.118;11.734;2023-04-15T12:25:03;4.65;;;2.50;;
51332;SDS011;37417;48.118;11.734;2023-04-15T12:27:30;3.53;;;2.70;;
51332;SDS011;37417;48.118;11.734;2023-04-15T12:30:03;6.93;;;2.80;;
51332;SDS011;37417;48.118;11.734;2023-04-15T12:32:29;3.92;;;3.08;;
51332;SDS011;37417;48.118;11.734;2023-04-15T12:34:59;6.13;;;2.35;;
51332;SDS011;37417;48.118;11.734;2023-04-15T12:37:25;6.90;;;2.65;;
51332;SDS011;37417;48.118;11.734;2023-04-15T12:39:50;5.38;;;3.05;;
51332;SDS011;37417;48.118;11.734;2023-04-15T12:42:18;5.22;;;2.78;;
51332;SDS011;37417;48.118;11.734;2023-04-15T12:44:44;7.25;;;2.40;;
51332;SDS011;37417;48.118;11.734;2023-04-15T12:47:10;3.58;;;2.38;;
51332;SDS011;37417;48.118;11.734;2023-04-15T12:49:36;3.15;;;2.33;;
51332;SDS011;37417;48.118;11.734;2023-04-15T12:52:02;2.65;;;2.13;;
51332;SDS011;37417;48.118;11.734;2023-04-15T12:54:28;3.42;;;2.00;;
51332;SDS011;37417;48.118;11.734;2023-04-15T12:56:54;3.00;;;1.92;;
51332;SDS011;37417;48.118;11.734;2023-04-15T12:59:20;5.68;;;2.33;;
51332;SDS011;37417;48.118;11.734;2023-04-15T13:01:47;3.38;;;2.00;;
51332;SDS011;37417;48.118;11.734;2023-04-15T13:04:14;3.85;;;1.80;;
51332;SDS011;37417;48.118;11.734;2023-04-15T13:06:40;3.63;;;1.85;;
51332;SDS011;37417;48.118;11.734;2023-04-15T13:09:05;3.35;;;2.25;;
51332;SDS011;37417;48.118;11.734;2023-04-15T13:11:31;1.88;;;0.90;;
51332;SDS011;37417;48.118;11.734;2023-04-15T13:14:00;4.13;;;1.55;;
51332;SDS011;37417;48.118;11.734;2023-04-15T13:16:29;2.92;;;1.50;;
51332;SDS011;37417;48.118;11.734;2023-04-15T13:18:55;2.80;;;1.67;;
51332;SDS011;37417;48.118;11.734;2023-04-15T13:21:21;3.33;;;1.80;;
51332;SDS011;37417;48.118;11.734;2023-04-15T13:23:47;1.77;;;1.48;;
51332;SDS011;37417;48.118;11.734;2023-04-15T13:26:13;4.03;;;2.42;;
51332;SDS011;37417;48.118;11.734;2023-04-15T13:28:39;4.20;;;2.17;;
51332;SDS011;37417;48.118;11.734;2023-04-15T13:31:04;4.22;;;2.97;;
51332;SDS011;37417;48.118;11.734;2023-04-15T13:33:29;3.38;;;2.78;;
51332;SDS011;37417;48.118;11.734;2023-04-15T13:35:55;4.63;;;2.97;;
51332;SDS011;37417;48.118;11.734;2023-04-15T13:38:21;5.90;;;2.80;;
51332;SDS011;37417;48.118;11.734;2023-04-15T13:40:47;5.60;;;2.97;;
51332;SDS011;37417;48.118;11.734;2023-04-15T13:43:12;4.30;;;3.25;;
51332;SDS011;37417;48.118;11.734;2023-04-15T13:45:37;3.50;;;2.58;;
51332;SDS011;37417;48.118;11.734;2023-04-15T13:48:03;4.90;;;2.90;;
51332;SDS011;37417;48.118;11.734;2023-04-15T13:50:28;6.82;;;2.75;;
51332;SDS011;37417;48.118;11.734;2023-04-15T13:52:54;4.82;;;2.67;;
51332;SDS011;37417;48.118;11.734;2023-04-15T13:55:19;5.47;;;3.25;;
51332;SDS011;37417;48.118;11.734;2023-04-15T13:57:44;6.70;;;3.15;;
51332;SDS011;37417;48.118;11.734;2023-04-15T14:00:10;7.55;;;3.08;;
51332;SDS011;37417;48.118;11.734;2023-04-15T14:02:36;6.15;;;3.28;;
51332;SDS011;37417;48.118;11.734;2023-04-15T14:05:01;4.88;;;3.15;;
51332;SDS011;37417;48.118;11.734;2023-04-15T14:07:28;5.50;;;3.15;;
51332;SDS011;37417;48.118;11.734;2023-04-15T14:09:54;6.55;;;3.92;;
51332;SDS011;37417;48.118;11.734;2023-04-15T14:12:20;5.82;;;3.13;;
51332;SDS011;37417;48.118;11.734;2023-04-15T14:14:45;5.50;;;3.60;;
51332;SDS011;37417;48.118;11.734;2023-04-15T14:17:10;7.38;;;3.35;;
51332;SDS011;37417;48.118;11.734;2023-04-15T14:19:36;4.10;;;3.00;;
51332;SDS011;37417;48.118;11.734;2023-04-15T14:22:01;4.30;;;2.75;;
51332;SDS011;37417;48.118;11.734;2023-04-15T14:24:27;4.55;;;1.98;;
51332;SDS011;37417;48.118;11.734;2023-04-15T14:26:52;3.00;;;2.47;;
51332;SDS011;37417;48.118;11.734;2023-04-15T14:29:18;4.50;;;2.78;;
51332;SDS011;37417;48.118;11.734;2023-04-15T14:31:44;5.45;;;2.55;;
51332;SDS011;37417;48.118;11.734;2023-04-15T14:34:10;4.18;;;2.00;;
51332;SDS011;37417;48.118;11.734;2023-04-15T14:36:35;3.05;;;2.45;;
51332;SDS011;37417;48.118;11.734;2023-04-15T14:39:01;5.63;;;2.20;;
51332;SDS011;37417;48.118;11.734;2023-04-15T14:41:28;4.10;;;2.30;;
51332;SDS011;37417;48.118;11.734;2023-04-15T14:43:53;5.50;;;2.47;;
51332;SDS011;37417;48.118;11.734;2023-04-15T14:46:19;1.95;;;1.85;;